createdAt,value
2023-02-19T00:00:25.993Z,91.2
2023-02-19T00:01:27.434Z,91.2
2023-02-19T00:02:28.825Z,91.2
2023-02-19T00:03:30.484Z,91.2
2023-02-19T00:04:31.895Z,91.2
2023-02-19T00:05:33.305Z,91.3
2023-02-19T00:06:34.735Z,91.3
2023-02-19T00:07:36.134Z,91.4
2023-02-19T00:08:37.565Z,91.4
2023-02-19T00:09:38.969Z,91.4
2023-02-19T00:10:40.414Z,91.5
2023-02-19T00:11:41.820Z,91.5
2023-02-19T00:12:43.223Z,91.6
2023-02-19T00:13:44.642Z,91.6
2023-02-19T00:14:46.054Z,91.7
2023-02-19T00:15:47.771Z,91.7
2023-02-19T00:16:49.217Z,91.8
2023-02-19T00:17:50.596Z,91.9
2023-02-19T00:18:52.010Z,91.9
2023-02-19T00:19:53.426Z,91.9
2023-02-19T00:20:54.846Z,92
2023-02-19T00:21:56.252Z,92
2023-02-19T00:22:57.670Z,92
2023-02-19T00:23:59.083Z,92.1
2023-02-19T00:25:00.499Z,92.1
2023-02-19T00:26:19.372Z,92.1
2023-02-19T00:28:30.731Z,92.3
2023-02-19T00:29:32.145Z,92.3
2023-02-19T00:30:33.753Z,92.4
2023-02-19T00:31:35.792Z,92.4
2023-02-19T00:32:37.292Z,92.4
2023-02-19T00:33:38.681Z,92.5
2023-02-19T00:34:40.249Z,92.5
2023-02-19T00:35:41.714Z,92.5
2023-02-19T00:36:43.141Z,92.5
2023-02-19T00:37:44.544Z,92.5
2023-02-19T00:38:45.959Z,92.5
2023-02-19T00:39:47.373Z,92.5
2023-02-19T00:40:48.794Z,92.5
2023-02-19T00:41:50.198Z,92.5
2023-02-19T00:42:51.617Z,92.5
2023-02-19T00:43:53.040Z,92.5
2023-02-19T00:44:54.456Z,92.5
2023-02-19T00:45:55.890Z,92.5
2023-02-19T00:46:57.287Z,92.5
2023-02-19T00:47:58.728Z,92.6
2023-02-19T00:49:00.117Z,92.6
2023-02-19T00:50:02.447Z,92.6
2023-02-19T00:51:03.860Z,92.6
2023-02-19T00:52:05.283Z,92.7
2023-02-19T00:53:06.687Z,92.7
2023-02-19T00:54:08.107Z,92.8
2023-02-19T00:55:09.519Z,92.8
2023-02-19T00:56:10.933Z,92.8
2023-02-19T00:57:12.348Z,92.8
2023-02-19T00:58:13.765Z,92.9
2023-02-19T00:59:15.182Z,92.9
2023-02-19T01:00:16.593Z,92.9
2023-02-19T01:01:18.043Z,93
2023-02-19T01:02:19.427Z,93
2023-02-19T01:03:20.875Z,93.1
2023-02-19T01:04:22.313Z,93.1
2023-02-19T01:05:23.729Z,93.2
2023-02-19T01:06:25.331Z,93.2
2023-02-19T01:07:26.747Z,93.2
2023-02-19T01:08:28.163Z,93.3
2023-02-19T01:09:29.585Z,93.3
2023-02-19T01:10:30.991Z,93.2
2023-02-19T01:11:32.410Z,93.3
2023-02-19T01:12:33.820Z,93.2
2023-02-19T01:13:35.241Z,93.2
2023-02-19T01:14:36.385Z,93.2
2023-02-19T01:15:37.786Z,93.2
2023-02-19T01:16:38.647Z,93.2
2023-02-19T01:17:40.057Z,93.2
2023-02-19T01:18:41.253Z,93.2
2023-02-19T01:19:42.646Z,93.2
2023-02-19T01:20:44.226Z,93.3
2023-02-19T01:21:45.363Z,93.3
2023-02-19T01:22:46.536Z,93.3
2023-02-19T01:23:47.740Z,93.3
2023-02-19T01:24:48.925Z,93.3
2023-02-19T01:25:50.058Z,93.3
2023-02-19T01:26:51.472Z,93.3
2023-02-19T01:27:52.371Z,93.3
2023-02-19T01:28:53.786Z,93.3
2023-02-19T01:29:55.198Z,93.3
2023-02-19T01:30:56.720Z,93.4
2023-02-19T01:31:58.373Z,93.4
2023-02-19T01:32:59.485Z,93.4
2023-02-19T01:34:00.457Z,93.4
2023-02-19T01:35:01.868Z,93.4
2023-02-19T01:36:03.018Z,93.4
2023-02-19T01:37:03.923Z,93.4
2023-02-19T01:38:05.058Z,93.4
2023-02-19T01:39:06.478Z,93.4
2023-02-19T01:40:07.895Z,93.5
2023-02-19T01:41:10.251Z,93.5
2023-02-19T01:42:11.851Z,93.5
2023-02-19T01:43:13.275Z,93.5
2023-02-19T01:44:14.682Z,93.5
2023-02-19T01:45:16.100Z,93.5
2023-02-19T01:46:17.317Z,93.5
2023-02-19T01:47:18.750Z,93.5
2023-02-19T01:48:20.166Z,93.6
2023-02-19T01:49:21.610Z,93.5
2023-02-19T01:50:23.268Z,93.5
2023-02-19T01:51:24.408Z,93.5
2023-02-19T01:52:25.826Z,93.5
2023-02-19T01:53:27.233Z,93.5
2023-02-19T01:54:28.645Z,93.5
2023-02-19T01:55:30.059Z,93.5
2023-02-19T01:56:31.196Z,93.5
2023-02-19T01:57:32.617Z,93.5
2023-02-19T01:58:34.029Z,93.5
2023-02-19T01:59:35.443Z,93.5
2023-02-19T02:00:36.643Z,93.5
2023-02-19T02:01:37.848Z,93.6
2023-02-19T02:02:39.336Z,93.6
2023-02-19T02:03:40.751Z,93.6
2023-02-19T02:04:42.193Z,93.6
2023-02-19T02:05:43.586Z,93.6
2023-02-19T02:06:45.003Z,93.5
2023-02-19T02:07:46.411Z,93.5
2023-02-19T02:08:47.824Z,93.5
2023-02-19T02:09:49.240Z,93.5
2023-02-19T02:10:50.381Z,93.5
2023-02-19T02:11:51.803Z,93.5
2023-02-19T02:12:53.208Z,93.6
2023-02-19T02:13:54.624Z,93.6
2023-02-19T02:14:55.756Z,93.6
2023-02-19T02:15:57.223Z,93.7
2023-02-19T02:16:58.631Z,93.6
2023-02-19T02:17:59.761Z,93.6
2023-02-19T02:19:00.899Z,93.6
2023-02-19T02:20:02.107Z,93.6
2023-02-19T02:21:03.506Z,93.6
2023-02-19T02:22:04.918Z,93.6
2023-02-19T02:23:06.046Z,93.6
2023-02-19T02:24:07.460Z,93.7
2023-02-19T02:25:09.308Z,93.7
2023-02-19T02:26:10.752Z,93.8
2023-02-19T02:27:12.143Z,93.8
2023-02-19T02:28:13.557Z,93.9
2023-02-19T02:29:14.692Z,93.9
2023-02-19T02:30:15.907Z,94
2023-02-19T02:31:17.701Z,94
2023-02-19T02:32:19.101Z,94
2023-02-19T02:33:20.205Z,94.1
2023-02-19T02:34:21.412Z,94.1
2023-02-19T02:35:22.822Z,94.1
2023-02-19T02:36:24.217Z,94.1
2023-02-19T02:37:25.648Z,94.2
2023-02-19T02:38:27.064Z,94.2
2023-02-19T02:39:28.465Z,94.2
2023-02-19T02:40:29.894Z,94.2
2023-02-19T02:41:31.297Z,94.2
2023-02-19T02:42:32.713Z,94.2
2023-02-19T02:43:34.144Z,94.2
2023-02-19T02:44:35.748Z,94.2
2023-02-19T02:45:38.018Z,94.2
2023-02-19T02:46:39.075Z,94.3
2023-02-19T02:47:40.497Z,94.3
2023-02-19T02:48:41.905Z,94.3
2023-02-19T02:49:43.328Z,94.3
2023-02-19T02:50:44.740Z,94.3
2023-02-19T02:51:46.070Z,94.3
2023-02-19T02:52:47.484Z,94.3
2023-02-19T02:53:48.661Z,94.3
2023-02-19T02:54:49.836Z,94.3
2023-02-19T02:55:51.014Z,94.3
2023-02-19T02:56:52.152Z,94.3
2023-02-19T02:57:53.347Z,94.2
2023-02-19T02:58:54.484Z,94.2
2023-02-19T02:59:55.902Z,94.1
2023-02-19T03:00:57.453Z,94.1
2023-02-19T03:01:58.994Z,94.1
2023-02-19T03:03:00.553Z,94.1
2023-02-19T03:04:01.967Z,94.1
2023-02-19T03:05:03.404Z,94.1
2023-02-19T03:06:04.307Z,94.1
2023-02-19T03:07:05.722Z,94.1
2023-02-19T03:08:07.136Z,94.1
2023-02-19T03:09:08.555Z,94.2
2023-02-19T03:10:09.407Z,94.3
2023-02-19T03:11:11.876Z,94.4
2023-02-19T03:12:13.333Z,94.5
2023-02-19T03:13:14.730Z,94.6
2023-02-19T03:14:15.905Z,94.8
2023-02-19T03:15:17.319Z,94.9
2023-02-19T03:16:18.759Z,95.1
2023-02-19T03:17:19.886Z,95.3
2023-02-19T03:18:21.293Z,95.5
2023-02-19T03:19:22.793Z,95.6
2023-02-19T03:20:24.210Z,95.8
2023-02-19T03:21:25.623Z,96
2023-02-19T03:22:27.043Z,96.1
2023-02-19T03:23:28.454Z,96.2
2023-02-19T03:24:29.587Z,96.3
2023-02-19T03:25:31.002Z,96.4
2023-02-19T03:26:32.419Z,96.5
2023-02-19T03:27:33.274Z,96.5
2023-02-19T03:28:34.690Z,96.6
2023-02-19T03:29:36.105Z,96.6
2023-02-19T03:30:37.630Z,96.7
2023-02-19T03:31:38.783Z,96.7
2023-02-19T03:32:40.178Z,96.7
2023-02-19T03:33:41.595Z,96.7
2023-02-19T03:34:43.023Z,96.8
2023-02-19T03:35:44.429Z,96.8
2023-02-19T03:36:45.560Z,96.8
2023-02-19T03:37:46.975Z,96.8
2023-02-19T03:38:48.512Z,96.8
2023-02-19T03:39:49.945Z,96.9
2023-02-19T03:40:51.368Z,96.9
2023-02-19T03:41:52.773Z,96.9
2023-02-19T03:42:56.778Z,96.9
2023-02-19T03:43:58.192Z,96.9
2023-02-19T03:44:59.607Z,96.8
2023-02-19T03:46:01.264Z,96.8
2023-02-19T03:47:02.702Z,96.7
2023-02-19T03:48:04.128Z,96.7
2023-02-19T03:49:05.533Z,96.7
2023-02-19T03:50:06.671Z,96.8
2023-02-19T03:51:08.009Z,96.7
2023-02-19T03:52:09.496Z,96.8
2023-02-19T03:53:10.911Z,96.8
2023-02-19T03:54:12.330Z,96.8
2023-02-19T03:55:13.751Z,96.8
2023-02-19T03:56:15.157Z,96.8
2023-02-19T03:57:16.293Z,96.9
2023-02-19T03:58:17.709Z,96.9
2023-02-19T03:59:18.899Z,96.9
2023-02-19T04:00:20.079Z,97
2023-02-19T04:01:21.522Z,97
2023-02-19T04:02:22.966Z,97
2023-02-19T04:03:24.427Z,97
2023-02-19T04:04:26.042Z,97
2023-02-19T04:05:27.429Z,97
2023-02-19T04:06:28.854Z,97
2023-02-19T04:07:30.257Z,97
2023-02-19T04:08:31.669Z,97
2023-02-19T04:09:33.088Z,97
2023-02-19T04:10:33.950Z,97
2023-02-19T04:11:35.080Z,97
2023-02-19T04:12:36.254Z,97
2023-02-19T04:13:37.146Z,97
2023-02-19T04:14:38.559Z,97
2023-02-19T04:15:39.973Z,97
2023-02-19T04:16:41.236Z,96.9
2023-02-19T04:17:42.626Z,96.9
2023-02-19T04:18:43.801Z,96.9
2023-02-19T04:19:45.220Z,96.9
2023-02-19T04:20:46.632Z,97
2023-02-19T04:21:48.046Z,97
2023-02-19T04:22:49.190Z,97
2023-02-19T04:23:50.416Z,97
2023-02-19T04:24:51.628Z,97.1
2023-02-19T04:25:52.813Z,97.1
2023-02-19T04:26:54.227Z,97.1
2023-02-19T04:27:55.692Z,97.1
2023-02-19T04:28:56.783Z,97.2
2023-02-19T04:29:58.200Z,97.2
2023-02-19T04:30:59.431Z,97.2
2023-02-19T04:32:00.699Z,97.2
2023-02-19T04:33:02.113Z,97.3
2023-02-19T04:34:03.666Z,97.3
2023-02-19T04:35:05.083Z,97.3
2023-02-19T04:36:06.264Z,97.3
2023-02-19T04:37:07.690Z,97.3
2023-02-19T04:38:09.100Z,97.3
2023-02-19T04:39:10.509Z,97.3
2023-02-19T04:40:11.654Z,97.3
2023-02-19T04:41:13.823Z,97.3
2023-02-19T04:42:14.946Z,97.3
2023-02-19T04:43:16.363Z,97.3
2023-02-19T04:44:17.791Z,97.3
2023-02-19T04:45:19.195Z,97.4
2023-02-19T04:46:20.685Z,97.4
2023-02-19T04:47:21.901Z,97.4
2023-02-19T04:48:23.314Z,97.4
2023-02-19T04:49:24.735Z,97.4
2023-02-19T04:50:25.882Z,97.4
2023-02-19T04:51:26.998Z,97.4
2023-02-19T04:52:28.172Z,97.3
2023-02-19T04:53:29.589Z,97.3
2023-02-19T04:54:30.998Z,97.3
2023-02-19T04:55:32.418Z,97.3
2023-02-19T04:56:33.838Z,97.3
2023-02-19T04:57:35.245Z,97.3
2023-02-19T04:58:36.663Z,97.3
2023-02-19T04:59:37.799Z,97.2
2023-02-19T05:00:38.939Z,96.7
2023-02-19T05:01:40.137Z,96.3
2023-02-19T05:02:41.165Z,95.3
2023-02-19T05:03:42.031Z,94.7
2023-02-19T05:04:43.308Z,93.7
2023-02-19T05:05:44.701Z,93.2
2023-02-19T05:06:46.120Z,92.7
2023-02-19T05:07:47.253Z,92.4
2023-02-19T05:08:48.675Z,92.3
2023-02-19T05:09:50.087Z,92
2023-02-19T05:10:51.253Z,91.6
2023-02-19T05:11:52.085Z,91.5
2023-02-19T05:12:53.495Z,91.4
2023-02-19T05:13:54.914Z,91.4
2023-02-19T05:14:56.326Z,91.2
2023-02-19T05:15:57.939Z,91
2023-02-19T05:16:59.350Z,91.1
2023-02-19T05:18:00.765Z,91.2
2023-02-19T05:19:01.902Z,91.2
2023-02-19T05:20:03.315Z,91.4
2023-02-19T05:21:04.732Z,91.4
2023-02-19T05:22:06.146Z,91.6
2023-02-19T05:23:07.562Z,91.7
2023-02-19T05:24:08.742Z,91.7
2023-02-19T05:25:09.925Z,91.6
2023-02-19T05:26:11.341Z,91.6
2023-02-19T05:27:12.756Z,91.6
2023-02-19T05:28:14.179Z,91.7
2023-02-19T05:29:15.308Z,91.8
2023-02-19T05:30:16.777Z,91.8
2023-02-19T05:31:18.755Z,91.8
2023-02-19T05:32:20.080Z,91.7
2023-02-19T05:33:21.468Z,91.8
2023-02-19T05:34:22.600Z,91.8
2023-02-19T05:35:23.458Z,91.9
2023-02-19T05:36:24.870Z,92
2023-02-19T05:37:26.284Z,91.9
2023-02-19T05:38:27.704Z,91.7
2023-02-19T05:39:28.841Z,91.6
2023-02-19T05:40:30.257Z,91.7
2023-02-19T05:41:31.668Z,91.6
2023-02-19T05:42:33.117Z,91.5
2023-02-19T05:43:34.529Z,91.5
2023-02-19T05:44:35.713Z,91.3
2023-02-19T05:45:37.133Z,91.4
2023-02-19T05:46:38.364Z,91.4
2023-02-19T05:47:39.807Z,91.5
2023-02-19T05:48:41.224Z,91.4
2023-02-19T05:49:42.634Z,91.5
2023-02-19T05:50:44.053Z,91.5
2023-02-19T05:51:45.292Z,91.6
2023-02-19T05:52:46.666Z,91.6
2023-02-19T05:53:48.078Z,91.7
2023-02-19T05:54:49.215Z,91.8
2023-02-19T05:55:50.872Z,92
2023-02-19T05:56:52.278Z,92
2023-02-19T05:57:53.688Z,92.1
2023-02-19T05:58:55.116Z,92.1
2023-02-19T05:59:56.293Z,92.1
2023-02-19T06:00:57.959Z,92
2023-02-19T06:01:59.101Z,92
2023-02-19T06:03:00.761Z,91.8
2023-02-19T06:04:02.374Z,91.7
2023-02-19T06:05:03.606Z,91.5
2023-02-19T06:06:05.009Z,91.5
2023-02-19T06:07:06.143Z,91.4
2023-02-19T06:08:07.577Z,91.4
2023-02-19T06:09:08.484Z,91.4
2023-02-19T06:10:09.897Z,91.3
2023-02-19T06:11:12.530Z,91.3
2023-02-19T06:12:13.881Z,91.4
2023-02-19T06:13:18.090Z,91.5
2023-02-19T06:14:19.485Z,91.5
2023-02-19T06:15:20.901Z,91.6
2023-02-19T06:16:22.278Z,91.7
2023-02-19T06:17:23.748Z,91.7
2023-02-19T06:18:25.152Z,91.7
2023-02-19T06:19:26.286Z,91.7
2023-02-19T06:20:27.421Z,91.7
2023-02-19T06:21:28.842Z,91.8
2023-02-19T06:22:30.026Z,91.9
2023-02-19T06:23:31.158Z,92
2023-02-19T06:24:32.578Z,92.1
2023-02-19T06:25:33.716Z,92
2023-02-19T06:26:35.141Z,91.9
2023-02-19T06:27:36.300Z,91.9
2023-02-19T06:28:37.701Z,92
2023-02-19T06:29:39.119Z,92.1
2023-02-19T06:30:40.531Z,92
2023-02-19T06:31:42.002Z,91.9
2023-02-19T06:32:43.317Z,91.8
2023-02-19T06:33:44.731Z,91.7
2023-02-19T06:34:46.158Z,91.7
2023-02-19T06:35:47.564Z,91.6
2023-02-19T06:36:48.550Z,91.5
2023-02-19T06:37:49.986Z,91.3
2023-02-19T06:38:51.342Z,91.2
2023-02-19T06:39:52.465Z,91.1
2023-02-19T06:40:53.884Z,91.1
2023-02-19T06:41:55.024Z,91.1
2023-02-19T06:42:56.522Z,91.1
2023-02-19T06:43:57.942Z,91.2
2023-02-19T06:44:59.377Z,91.2
2023-02-19T06:46:00.779Z,91.3
2023-02-19T06:47:02.209Z,91.3
2023-02-19T06:48:03.625Z,91.3
2023-02-19T06:49:05.044Z,91.2
2023-02-19T06:50:06.220Z,91.1
2023-02-19T06:51:07.637Z,90.9
2023-02-19T06:52:09.053Z,90.7
2023-02-19T06:53:10.469Z,90.7
2023-02-19T06:54:11.886Z,90.7
2023-02-19T06:55:13.432Z,90.7
2023-02-19T06:56:14.294Z,90.7
2023-02-19T06:57:15.703Z,90.6
2023-02-19T06:58:17.124Z,90.5
2023-02-19T06:59:18.541Z,90.4
2023-02-19T07:00:19.956Z,90.3
2023-02-19T07:01:21.516Z,90.3
2023-02-19T07:02:22.930Z,90.4
2023-02-19T07:03:24.342Z,90.3
2023-02-19T07:04:25.891Z,90.1
2023-02-19T07:05:27.357Z,90.1
2023-02-19T07:06:28.794Z,90.1
2023-02-19T07:07:30.193Z,90.1
2023-02-19T07:08:31.614Z,90
2023-02-19T07:09:33.027Z,90
2023-02-19T07:10:34.159Z,89.9
2023-02-19T07:11:35.585Z,89.8
2023-02-19T07:12:36.986Z,89.5
2023-02-19T07:13:38.404Z,89.5
2023-02-19T07:14:39.540Z,89.6
2023-02-19T07:15:40.956Z,89.7
2023-02-19T07:16:42.579Z,89.7
2023-02-19T07:17:43.971Z,89.9
2023-02-19T07:18:45.386Z,89.9
2023-02-19T07:19:46.809Z,89.8
2023-02-19T07:20:48.222Z,89.7
2023-02-19T07:21:49.634Z,89.7
2023-02-19T07:22:51.051Z,89.6
2023-02-19T07:23:52.462Z,89.6
2023-02-19T07:24:53.882Z,89.5
2023-02-19T07:25:55.294Z,89.4
2023-02-19T07:26:56.714Z,89.3
2023-02-19T07:27:57.858Z,89.3
2023-02-19T07:28:59.280Z,89.3
2023-02-19T07:30:00.834Z,89.3
2023-02-19T07:31:02.448Z,89.2
2023-02-19T07:32:03.902Z,89.2
2023-02-19T07:33:05.436Z,89.1
2023-02-19T07:34:06.849Z,89
2023-02-19T07:35:08.269Z,89
2023-02-19T07:36:09.689Z,89
2023-02-19T07:37:11.103Z,89.2
2023-02-19T07:38:12.511Z,89.2
2023-02-19T07:39:13.933Z,89.2
2023-02-19T07:40:15.359Z,89.1
2023-02-19T07:41:16.767Z,89.2
2023-02-19T07:42:18.355Z,89.3
2023-02-19T07:43:19.754Z,89.4
2023-02-19T07:44:21.165Z,89.5
2023-02-19T07:45:22.584Z,89.4
2023-02-19T07:46:24.006Z,89.4
2023-02-19T07:47:25.145Z,89.5
2023-02-19T07:48:26.575Z,89.5
2023-02-19T07:49:27.981Z,89.5
2023-02-19T07:50:29.402Z,89.5
2023-02-19T07:51:30.816Z,89.4
2023-02-19T07:52:32.229Z,89.4
2023-02-19T07:53:33.649Z,89.3
2023-02-19T07:54:35.061Z,89.4
2023-02-19T07:55:36.477Z,89.3
2023-02-19T07:56:37.901Z,89.3
2023-02-19T07:57:39.308Z,89.3
2023-02-19T07:58:40.818Z,89.4
2023-02-19T07:59:42.223Z,89.3
2023-02-19T08:00:43.650Z,89.4
2023-02-19T08:01:45.086Z,89.4
2023-02-19T08:02:46.467Z,89.4
2023-02-19T08:03:51.089Z,89.4
2023-02-19T08:04:52.501Z,89.3
2023-02-19T08:05:53.917Z,89.2
2023-02-19T08:06:55.336Z,89.3
2023-02-19T08:07:56.753Z,89.2
2023-02-19T08:08:58.166Z,89.2
2023-02-19T08:09:59.580Z,89.2
2023-02-19T08:11:01.002Z,89.1
2023-02-19T08:12:02.417Z,89
2023-02-19T08:13:03.832Z,89
2023-02-19T08:14:05.250Z,89
2023-02-19T08:15:06.665Z,89
2023-02-19T08:16:42.826Z,89
2023-02-19T08:17:44.819Z,88.9
2023-02-19T08:18:46.236Z,88.8
2023-02-19T08:19:47.654Z,88.7
2023-02-19T08:20:49.068Z,88.7
2023-02-19T08:21:50.485Z,88.9
2023-02-19T08:22:51.929Z,88.9
2023-02-19T08:23:53.337Z,88.9
2023-02-19T08:24:54.758Z,88.7
2023-02-19T08:25:56.174Z,88.7
2023-02-19T08:26:57.594Z,88.6
2023-02-19T08:27:59.004Z,88.4
2023-02-19T08:29:00.420Z,88.4
2023-02-19T08:30:01.982Z,88.4
2023-02-19T08:31:03.489Z,88.4
2023-02-19T08:32:05.072Z,88.4
2023-02-19T08:33:06.467Z,88.3
2023-02-19T08:34:07.891Z,88.3
2023-02-19T08:35:09.293Z,88.2
2023-02-19T08:36:10.936Z,88.1
2023-02-19T08:37:12.428Z,88.1
2023-02-19T08:38:13.827Z,88.1
2023-02-19T08:39:15.241Z,88
2023-02-19T08:40:16.665Z,87.9
2023-02-19T08:41:18.087Z,87.8
2023-02-19T08:42:19.213Z,87.8
2023-02-19T08:43:20.645Z,87.7
2023-02-19T08:44:22.047Z,87.5
2023-02-19T08:45:23.458Z,87.5
2023-02-19T08:46:25.078Z,87.4
2023-02-19T08:47:26.544Z,87.3
2023-02-19T08:48:27.962Z,87.3
2023-02-19T08:49:29.432Z,87.3
2023-02-19T08:50:30.802Z,87.2
2023-02-19T08:51:32.231Z,87
2023-02-19T08:52:33.637Z,86.9
2023-02-19T08:53:35.049Z,86.8
2023-02-19T08:54:38.169Z,86.8
2023-02-19T08:55:39.590Z,86.8
2023-02-19T08:56:41.006Z,86.7
2023-02-19T08:57:42.418Z,86.7
2023-02-19T08:58:43.858Z,86.7
2023-02-19T08:59:45.259Z,86.7
2023-02-19T09:00:46.676Z,86.6
2023-02-19T09:01:48.258Z,86.3
2023-02-19T09:02:49.661Z,86.2
2023-02-19T09:03:51.451Z,86.1
2023-02-19T09:04:52.849Z,86.1
2023-02-19T09:05:54.252Z,86.1
2023-02-19T09:06:55.667Z,86.2
2023-02-19T09:07:57.270Z,86.2
2023-02-19T09:08:58.685Z,86.3
2023-02-19T09:10:00.101Z,86.3
2023-02-19T09:11:01.524Z,86.4
2023-02-19T09:12:02.932Z,86.3
2023-02-19T09:13:04.351Z,86.4
2023-02-19T09:14:05.763Z,86.4
2023-02-19T09:15:07.181Z,86.5
2023-02-19T09:16:08.894Z,86.5
2023-02-19T09:17:10.808Z,86.4
2023-02-19T09:18:12.321Z,86.5
2023-02-19T09:19:13.736Z,86.4
2023-02-19T09:20:15.156Z,86.3
2023-02-19T09:21:16.568Z,86.3
2023-02-19T09:22:17.987Z,86.3
2023-02-19T09:23:19.413Z,86.3
2023-02-19T09:24:20.824Z,86.2
2023-02-19T09:25:22.232Z,86.2
2023-02-19T09:26:23.651Z,86.2
2023-02-19T09:27:25.086Z,86.1
2023-02-19T09:28:26.482Z,86.1
2023-02-19T09:29:27.897Z,86.1
2023-02-19T09:30:29.515Z,86
2023-02-19T09:31:31.291Z,86
2023-02-19T09:32:32.702Z,86
2023-02-19T09:33:34.123Z,86
2023-02-19T09:34:35.708Z,85.9
2023-02-19T09:35:37.119Z,85.9
2023-02-19T09:36:38.537Z,85.9
2023-02-19T09:37:39.953Z,85.9
2023-02-19T09:38:41.372Z,85.8
2023-02-19T09:39:42.789Z,85.8
2023-02-19T09:40:44.203Z,85.8
2023-02-19T09:41:45.616Z,85.8
2023-02-19T09:42:47.038Z,85.9
2023-02-19T09:43:48.453Z,86
2023-02-19T09:44:49.589Z,85.9
2023-02-19T09:45:51.044Z,85.9
2023-02-19T09:46:52.466Z,85.8
2023-02-19T09:47:53.916Z,85.8
2023-02-19T09:48:55.302Z,85.8
2023-02-19T09:49:56.717Z,85.7
2023-02-19T09:50:58.156Z,85.7
2023-02-19T09:51:59.548Z,85.6
2023-02-19T09:53:00.975Z,85.5
2023-02-19T09:54:02.100Z,85.4
2023-02-19T09:55:03.519Z,85.3
2023-02-19T09:56:04.936Z,85.3
2023-02-19T09:57:06.935Z,85.4
2023-02-19T09:58:08.525Z,85.3
2023-02-19T09:59:09.926Z,85.2
2023-02-19T10:00:11.151Z,85
2023-02-19T10:01:13.784Z,84.9
2023-02-19T10:02:15.089Z,84.9
2023-02-19T10:03:16.743Z,84.8
2023-02-19T10:04:18.155Z,84.9
2023-02-19T10:05:19.716Z,84.6
2023-02-19T10:06:21.123Z,84.5
2023-02-19T10:07:22.540Z,84.4
2023-02-19T10:08:23.401Z,84.2
2023-02-19T10:09:24.815Z,84.2
2023-02-19T10:10:25.950Z,84.2
2023-02-19T10:11:27.390Z,84
2023-02-19T10:12:28.221Z,83.9
2023-02-19T10:13:29.399Z,83.9
2023-02-19T10:14:30.791Z,84
2023-02-19T10:15:32.195Z,84.1
2023-02-19T10:16:33.094Z,84.2
2023-02-19T10:17:34.543Z,84.2
2023-02-19T10:18:36.346Z,84
2023-02-19T10:19:37.763Z,83.7
2023-02-19T10:20:39.180Z,83.3
2023-02-19T10:21:40.087Z,83.1
2023-02-19T10:22:41.509Z,83
2023-02-19T10:23:42.925Z,82.8
2023-02-19T10:24:44.342Z,82.4
2023-02-19T10:25:45.755Z,82
2023-02-19T10:26:47.170Z,81.9
2023-02-19T10:27:48.588Z,81.8
2023-02-19T10:28:50.007Z,81.9
2023-02-19T10:29:51.417Z,81.9
2023-02-19T10:30:52.754Z,81.1
2023-02-19T10:31:54.109Z,80.6
2023-02-19T10:32:55.552Z,80.1
2023-02-19T10:33:56.712Z,79.8
2023-02-19T10:34:58.125Z,79.6
2023-02-19T10:35:58.979Z,79.3
2023-02-19T10:37:00.415Z,79.1
2023-02-19T10:38:01.830Z,79
2023-02-19T10:39:02.739Z,78.7
2023-02-19T10:40:03.916Z,78.5
2023-02-19T10:41:05.334Z,78.4
2023-02-19T10:42:06.190Z,78.2
2023-02-19T10:43:07.609Z,77.8
2023-02-19T10:44:09.019Z,77.5
2023-02-19T10:45:09.917Z,77.5
2023-02-19T10:46:10.917Z,77.5
2023-02-19T10:47:12.310Z,77.5
2023-02-19T10:48:13.726Z,77.3
2023-02-19T10:49:15.146Z,77.1
2023-02-19T10:50:16.276Z,77.1
2023-02-19T10:51:17.136Z,76.7
2023-02-19T10:52:18.748Z,76.1
2023-02-19T10:53:20.151Z,76
2023-02-19T10:54:21.777Z,75.9
2023-02-19T10:55:23.194Z,75.6
2023-02-19T10:56:24.609Z,74.5
2023-02-19T10:57:26.026Z,73.8
2023-02-19T10:58:27.443Z,73.5
2023-02-19T10:59:28.586Z,73.3
2023-02-19T11:00:29.791Z,73.5
2023-02-19T11:01:30.921Z,73.7
2023-02-19T11:02:32.354Z,73.9
2023-02-19T11:03:33.485Z,73.9
2023-02-19T11:04:35.782Z,73.9
2023-02-19T11:05:37.066Z,74.1
2023-02-19T11:06:38.472Z,74.1
2023-02-19T11:07:39.607Z,74.3
2023-02-19T11:08:41.031Z,74.2
2023-02-19T11:09:42.232Z,74.1
2023-02-19T11:10:43.624Z,74.2
2023-02-19T11:11:44.799Z,73.8
2023-02-19T11:12:46.214Z,73.9
2023-02-19T11:13:47.632Z,74.2
2023-02-19T11:14:49.049Z,74.4
2023-02-19T11:15:50.481Z,74.3
2023-02-19T11:16:51.600Z,74.1
2023-02-19T11:17:53.012Z,74.1
2023-02-19T11:18:57.789Z,74.3
2023-02-19T11:19:59.202Z,74.2
2023-02-19T11:21:00.633Z,74.2
2023-02-19T11:22:01.767Z,74.1
2023-02-19T11:23:02.893Z,74.2
2023-02-19T11:24:04.038Z,74.2
2023-02-19T11:25:05.443Z,74.1
2023-02-19T11:26:06.878Z,73.9
2023-02-19T11:27:07.997Z,73.6
2023-02-19T11:28:09.132Z,73.6
2023-02-19T11:29:10.031Z,73.8
2023-02-19T11:30:11.211Z,73.9
2023-02-19T11:31:13.989Z,73.8
2023-02-19T11:32:15.324Z,73.8
2023-02-19T11:33:16.726Z,73.7
2023-02-19T11:34:17.833Z,73.7
2023-02-19T11:35:18.958Z,73.6
2023-02-19T11:36:19.815Z,73.6
2023-02-19T11:37:21.287Z,73.7
2023-02-19T11:38:22.389Z,74
2023-02-19T11:39:23.801Z,74.3
2023-02-19T11:40:25.232Z,74.3
2023-02-19T11:41:26.654Z,74.3
2023-02-19T11:42:30.252Z,74.3
2023-02-19T11:43:31.670Z,74.1
2023-02-19T11:44:32.855Z,73.9
2023-02-19T11:45:34.256Z,73.7
2023-02-19T11:46:35.495Z,73.5
2023-02-19T11:47:36.615Z,73.3
2023-02-19T11:48:38.016Z,73.1
2023-02-19T11:49:39.306Z,72.8
2023-02-19T11:50:40.486Z,72.7
2023-02-19T11:51:41.899Z,72.7
2023-02-19T11:52:43.078Z,72.7
2023-02-19T11:53:44.494Z,72.6
2023-02-19T11:54:45.793Z,72.5
2023-02-19T11:55:47.174Z,72.8
2023-02-19T11:56:48.313Z,72.6
2023-02-19T11:57:49.727Z,72.2
2023-02-19T11:58:51.164Z,71.8
2023-02-19T11:59:52.124Z,71.3
2023-02-19T12:00:53.260Z,70.6
2023-02-19T12:01:54.502Z,70.3
2023-02-19T12:02:55.804Z,70.2
2023-02-19T12:03:56.915Z,70.3
2023-02-19T12:04:58.215Z,70.6
2023-02-19T12:05:59.601Z,70.5
2023-02-19T12:07:01.018Z,70.4
2023-02-19T12:08:02.581Z,70.5
2023-02-19T12:09:03.995Z,70.4
2023-02-19T12:10:05.460Z,70.5
2023-02-19T12:11:06.921Z,70.2
2023-02-19T12:12:08.336Z,70.1
2023-02-19T12:13:09.749Z,70
2023-02-19T12:14:11.163Z,70
2023-02-19T12:15:12.585Z,70.1
2023-02-19T12:16:14.322Z,70.2
2023-02-19T12:17:15.958Z,70.2
2023-02-19T12:18:17.374Z,70.1
2023-02-19T12:19:18.512Z,69.9
2023-02-19T12:20:19.645Z,69.7
2023-02-19T12:21:21.198Z,69.4
2023-02-19T12:22:22.615Z,69.3
2023-02-19T12:23:23.746Z,69.1
2023-02-19T12:24:25.035Z,68.6
2023-02-19T12:25:26.417Z,68.5
2023-02-19T12:26:27.842Z,68.4
2023-02-19T12:27:29.319Z,68.4
2023-02-19T12:28:30.700Z,68.5
2023-02-19T12:29:32.112Z,68.5
2023-02-19T12:30:33.685Z,68.7
2023-02-19T12:31:35.272Z,68.7
2023-02-19T12:32:36.742Z,68.7
2023-02-19T12:33:38.160Z,68.6
2023-02-19T12:34:39.292Z,68.3
2023-02-19T12:35:40.710Z,68
2023-02-19T12:36:41.626Z,68.1
2023-02-19T12:37:43.055Z,67.9
2023-02-19T12:38:44.178Z,68
2023-02-19T12:39:45.036Z,67.9
2023-02-19T12:40:45.661Z,67.7
2023-02-19T12:41:46.796Z,67.5
2023-02-19T12:42:51.129Z,67.7
2023-02-19T12:43:52.689Z,67.5
2023-02-19T12:44:54.193Z,67.5
2023-02-19T12:45:55.406Z,67.3
2023-02-19T12:46:56.779Z,67.2
2023-02-19T12:47:57.933Z,67.1
2023-02-19T12:48:59.331Z,67.2
2023-02-19T12:50:00.762Z,67.4
2023-02-19T12:51:02.183Z,67.7
2023-02-19T12:52:03.595Z,67.7
2023-02-19T12:53:05.005Z,67.8
2023-02-19T12:54:05.907Z,67.8
2023-02-19T12:55:07.320Z,67.7
2023-02-19T12:56:08.994Z,67.6
2023-02-19T12:57:10.472Z,67.3
2023-02-19T12:58:11.882Z,67.1
2023-02-19T12:59:13.024Z,67
2023-02-19T13:00:14.441Z,66.8
2023-02-19T13:01:15.861Z,66.5
2023-02-19T13:02:17.351Z,66.4
2023-02-19T13:03:18.368Z,66.3
2023-02-19T13:04:19.780Z,66.1
2023-02-19T13:05:21.196Z,66
2023-02-19T13:06:22.335Z,65.8
2023-02-19T13:07:23.515Z,65.6
2023-02-19T13:08:24.963Z,65.4
2023-02-19T13:09:26.102Z,65.5
2023-02-19T13:10:27.275Z,65.5
2023-02-19T13:11:28.485Z,65.5
2023-02-19T13:12:29.886Z,65.5
2023-02-19T13:13:31.301Z,65.4
2023-02-19T13:14:32.716Z,65.5
2023-02-19T13:15:33.613Z,65.5
2023-02-19T13:16:34.811Z,65.5
2023-02-19T13:17:35.777Z,65.4
2023-02-19T13:18:37.206Z,65.7
2023-02-19T13:19:38.608Z,65.8
2023-02-19T13:20:40.018Z,65.8
2023-02-19T13:21:40.935Z,65.9
2023-02-19T13:22:42.784Z,66.1
2023-02-19T13:23:44.202Z,66.3
2023-02-19T13:24:45.614Z,66.4
2023-02-19T13:25:47.039Z,66.4
2023-02-19T13:26:48.186Z,66.6
2023-02-19T13:27:49.602Z,66.8
2023-02-19T13:28:51.017Z,66.9
2023-02-19T13:29:53.729Z,67.1
2023-02-19T13:30:55.332Z,67.3
2023-02-19T13:31:56.958Z,67.4
2023-02-19T13:32:58.295Z,67.3
2023-02-19T13:33:59.715Z,67.1
2023-02-19T13:35:01.134Z,66.7
2023-02-19T13:36:02.275Z,66.7
2023-02-19T13:37:03.460Z,66.7
2023-02-19T13:39:06.340Z,66.6
2023-02-19T13:40:07.268Z,66.8
2023-02-19T13:41:08.412Z,66.8
2023-02-19T13:42:09.798Z,66.9
2023-02-19T13:43:11.222Z,67
2023-02-19T13:44:12.352Z,67.1
2023-02-19T13:45:13.272Z,67.1